createdAt,value
2023-02-27T00:00:36.287Z,102086.50
2023-02-27T00:03:44.753Z,102089.75
2023-02-27T00:06:48.813Z,102096.50
2023-02-27T00:09:53.790Z,102093.28
2023-02-27T00:13:08.062Z,102092.41
2023-02-27T00:16:13.024Z,102090.56
2023-02-27T00:19:17.850Z,102079.91
2023-02-27T00:22:21.597Z,102104.38
2023-02-27T00:25:30.942Z,102105.41
2023-02-27T00:28:34.992Z,102096.84
2023-02-27T00:31:39.232Z,102100.22
2023-02-27T00:34:43.146Z,102097.06
2023-02-27T00:37:47.828Z,102085.72
2023-02-27T00:40:52.266Z,102096.06
2023-02-27T00:43:56.230Z,102098.25
2023-02-27T00:47:00.676Z,102082.34
2023-02-27T00:50:14.878Z,102081.66
2023-02-27T00:53:18.961Z,102078.97
2023-02-27T00:56:24.490Z,102069.91
2023-02-27T00:59:29.307Z,102082.22
2023-02-27T01:02:33.747Z,102088.09
2023-02-27T01:05:48.056Z,102087.88
2023-02-27T01:08:56.742Z,102088.44
2023-02-27T01:12:01.816Z,102091.34
2023-02-27T01:15:17.725Z,102076.97
2023-02-27T01:18:28.684Z,102091.16
2023-02-27T01:21:32.750Z,102084.13
2023-02-27T01:24:48.518Z,102083.91
2023-02-27T01:27:52.798Z,102084.16
2023-02-27T01:30:56.799Z,102095.16
2023-02-27T01:34:01.347Z,102089.69
2023-02-27T01:37:05.906Z,102086.72
2023-02-27T01:40:11.863Z,102093.28
2023-02-27T01:43:23.365Z,102089.41
2023-02-27T01:46:31.519Z,102083.34
2023-02-27T01:49:35.619Z,102097.88
2023-02-27T01:52:41.548Z,102097.03
2023-02-27T01:55:48.927Z,102101.59
2023-02-27T01:58:58.431Z,102094.25
2023-02-27T02:02:20.600Z,102089.44
2023-02-27T02:05:24.924Z,102089.16
2023-02-27T02:08:32.326Z,102088.97
2023-02-27T02:11:38.173Z,102099.19
2023-02-27T02:14:42.374Z,102110.78
2023-02-27T02:17:54.888Z,102120.69
2023-02-27T02:21:06.763Z,102119.84
2023-02-27T02:24:33.687Z,102107.94
2023-02-27T02:27:50.499Z,102118.56
2023-02-27T02:31:37.678Z,102125.06
2023-02-27T02:35:12.548Z,102125.81
2023-02-27T02:42:24.712Z,102117.22
2023-02-27T02:45:39.336Z,102116.09
2023-02-27T02:48:55.519Z,102127.34
2023-02-27T02:52:17.355Z,102132.94
2023-02-27T02:55:48.649Z,102135.72
2023-02-27T02:59:08.087Z,102125.28
2023-02-27T03:02:17.545Z,102128.69
2023-02-27T03:05:36.716Z,102143.66
2023-02-27T03:08:56.293Z,102132.91
2023-02-27T03:12:02.939Z,102145.28
2023-02-27T03:15:28.108Z,102128.81
2023-02-27T03:18:46.024Z,102140.00
2023-02-27T03:22:08.279Z,102159.25
2023-02-27T03:25:30.051Z,102150.44
2023-02-27T03:28:40.878Z,102133.97
2023-02-27T03:31:51.885Z,102152.75
2023-02-27T03:35:08.195Z,102126.75
2023-02-27T03:42:10.455Z,102129.94
2023-02-27T03:46:02.702Z,102146.44
2023-02-27T03:49:17.589Z,102141.41
2023-02-27T03:52:32.731Z,102138.41
2023-02-27T03:55:41.925Z,102141.03
2023-02-27T03:58:45.850Z,102134.53
2023-02-27T04:02:01.153Z,102137.16
2023-02-27T04:05:06.450Z,102132.22
2023-02-27T04:08:43.197Z,102133.31
2023-02-27T04:12:03.704Z,102111.25
2023-02-27T04:15:33.757Z,102116.38
2023-02-27T04:19:10.354Z,102117.00
2023-02-27T04:22:50.967Z,102116.34
2023-02-27T04:26:07.880Z,102120.59
2023-02-27T04:29:23.896Z,102119.63
2023-02-27T04:32:40.217Z,102118.22
2023-02-27T04:36:08.789Z,102117.47
2023-02-27T04:39:33.933Z,102116.66
2023-02-27T04:42:47.519Z,102122.03
2023-02-27T04:45:52.503Z,102116.69
2023-02-27T04:49:13.851Z,102114.38
2023-02-27T04:52:33.300Z,102130.25
2023-02-27T04:55:44.745Z,102130.06
2023-02-27T04:58:59.333Z,102104.84
2023-02-27T05:02:20.243Z,102101.38
2023-02-27T05:05:38.815Z,102104.66
2023-02-27T05:09:25.218Z,102110.47
2023-02-27T05:12:36.905Z,102093.03
2023-02-27T05:15:52.049Z,102104.66
2023-02-27T05:19:04.070Z,102092.41
2023-02-27T05:22:37.084Z,102092.22
2023-02-27T05:29:52.230Z,102095.78
2023-02-27T05:32:58.719Z,102081.97
2023-02-27T05:36:21.408Z,102079.28
2023-02-27T05:39:39.141Z,102062.50
2023-02-27T05:42:51.534Z,102060.16
2023-02-27T05:46:06.724Z,102049.84
2023-02-27T05:49:46.505Z,102066.72
2023-02-27T05:52:54.111Z,102059.41
2023-02-27T05:56:07.261Z,102051.38
2023-02-27T05:59:29.546Z,102054.28
2023-02-27T06:02:35.569Z,102042.84
2023-02-27T06:05:42.510Z,102053.84
2023-02-27T06:08:52.366Z,102058.59
2023-02-27T06:11:56.404Z,102047.16
2023-02-27T06:15:00.574Z,102041.69
2023-02-27T06:18:05.517Z,102052.84
2023-02-27T06:21:14.961Z,102057.66
2023-02-27T06:24:29.587Z,102047.75
2023-02-27T06:27:33.979Z,102049.75
2023-02-27T06:30:38.371Z,102054.88
2023-02-27T06:33:42.597Z,102053.47
2023-02-27T06:36:53.452Z,102054.38
2023-02-27T06:39:58.766Z,102047.81
2023-02-27T06:43:04.545Z,102032.97
2023-02-27T06:46:18.009Z,102034.94
2023-02-27T06:49:23.766Z,102038.28
2023-02-27T06:52:38.488Z,102017.75
2023-02-27T06:55:42.934Z,102026.09
2023-02-27T06:58:47.789Z,102009.19
2023-02-27T07:01:52.165Z,102015.22
2023-02-27T07:05:08.260Z,102004.41
2023-02-27T07:08:22.931Z,101999.00
2023-02-27T07:11:27.517Z,101989.94
2023-02-27T07:14:31.900Z,101977.34
2023-02-27T07:17:36.544Z,101982.56
2023-02-27T07:20:40.751Z,101965.09
2023-02-27T07:23:45.322Z,101962.84
2023-02-27T07:26:49.747Z,101953.19
2023-02-27T07:30:03.828Z,101942.81
2023-02-27T07:33:08.767Z,101942.03
2023-02-27T07:36:13.199Z,101944.38
2023-02-27T07:39:17.152Z,101936.66
2023-02-27T07:42:21.417Z,101931.06
2023-02-27T07:45:36.170Z,101923.44
2023-02-27T07:48:41.134Z,101918.41
2023-02-27T07:51:45.598Z,101924.25
2023-02-27T07:54:49.948Z,101916.50
2023-02-27T07:57:59.452Z,101909.47
2023-02-27T08:01:03.438Z,101905.16
2023-02-27T08:04:07.401Z,101913.78
2023-02-27T08:07:11.692Z,101901.19
2023-02-27T08:10:17.100Z,101887.75
2023-02-27T08:13:58.941Z,101881.34
2023-02-27T08:17:03.244Z,101881.78
2023-02-27T08:20:08.540Z,101879.28
2023-02-27T08:23:12.492Z,101886.59
2023-02-27T08:26:16.737Z,101876.84
2023-02-27T08:29:20.471Z,101879.47
2023-02-27T08:32:25.283Z,101867.09
2023-02-27T08:35:31.399Z,101865.44
2023-02-27T08:38:35.969Z,101867.69
2023-02-27T08:41:45.572Z,101839.03
2023-02-27T08:45:01.123Z,101838.44
2023-02-27T08:48:10.875Z,101850.50
2023-02-27T08:51:19.983Z,101840.63
2023-02-27T08:54:23.891Z,101850.06
2023-02-27T08:57:29.070Z,101842.41
2023-02-27T09:00:33.760Z,101840.53
2023-02-27T09:03:37.793Z,101833.47
2023-02-27T09:06:42.229Z,101835.53
2023-02-27T09:09:49.710Z,101820.53
2023-02-27T09:12:54.680Z,101805.44
2023-02-27T09:15:59.197Z,101797.28
2023-02-27T09:19:03.247Z,101792.59
2023-02-27T09:22:13.224Z,101771.63
2023-02-27T09:25:20.069Z,101784.34
2023-02-27T09:28:28.942Z,101768.59
2023-02-27T09:31:33.951Z,101749.09
2023-02-27T09:34:38.236Z,101756.28
2023-02-27T09:37:52.058Z,101745.88
2023-02-27T09:41:02.801Z,101764.63
2023-02-27T09:44:36.482Z,101747.69
2023-02-27T09:48:38.302Z,101743.94
2023-02-27T09:51:46.844Z,101752.97
2023-02-27T09:54:50.994Z,101746.13
2023-02-27T09:58:02.551Z,101727.31
2023-02-27T10:01:45.649Z,101731.00
2023-02-27T10:04:58.424Z,101740.97
2023-02-27T10:12:40.036Z,101713.81
2023-02-27T10:15:57.825Z,101709.84
2023-02-27T10:19:14.450Z,101693.72
2023-02-27T10:22:26.613Z,101699.84
2023-02-27T10:25:40.505Z,101680.50
2023-02-27T10:28:46.297Z,101687.25
2023-02-27T10:32:14.530Z,101673.34
2023-02-27T10:35:29.659Z,101661.19
2023-02-27T10:38:48.863Z,101665.16
2023-02-27T10:41:53.236Z,101633.94
2023-02-27T10:45:08.258Z,101639.28
2023-02-27T10:48:14.134Z,101636.72
2023-02-27T10:51:33.763Z,101630.00
2023-02-27T10:54:40.714Z,101631.06
2023-02-27T10:57:47.212Z,101617.97
2023-02-27T11:00:59.788Z,101617.53
2023-02-27T11:04:03.869Z,101595.84
2023-02-27T11:07:12.599Z,101606.53
2023-02-27T11:10:28.721Z,101608.97
2023-02-27T11:13:39.944Z,101605.59
2023-02-27T11:17:01.391Z,101599.66
2023-02-27T11:20:30.439Z,101595.19
2023-02-27T11:24:01.727Z,101596.84
2023-02-27T11:27:29.475Z,101589.28
2023-02-27T11:30:38.241Z,101575.63
2023-02-27T11:33:55.033Z,101571.50
2023-02-27T11:37:23.730Z,101578.34
2023-02-27T11:40:34.845Z,101564.84
2023-02-27T11:43:47.787Z,101547.22
2023-02-27T11:46:52.216Z,101542.69
2023-02-27T11:49:59.435Z,101537.47
2023-02-27T11:53:14.866Z,101522.13
2023-02-27T11:57:10.961Z,101533.50
2023-02-27T12:00:33.519Z,101522.41
2023-02-27T12:04:05.091Z,101523.63
2023-02-27T12:07:38.773Z,101517.31
2023-02-27T12:11:04.589Z,101510.63
2023-02-27T12:14:23.764Z,101513.47
2023-02-27T12:17:53.993Z,101512.34
2023-02-27T12:21:16.103Z,101502.28
2023-02-27T12:24:41.231Z,101491.88
2023-02-27T12:28:18.783Z,101486.47
2023-02-27T12:31:36.410Z,101472.59
2023-02-27T12:34:46.988Z,101474.00
2023-02-27T12:37:51.837Z,101479.81
2023-02-27T12:41:17.658Z,101461.00
2023-02-27T12:45:01.589Z,101468.09
2023-02-27T12:48:13.932Z,101458.56
2023-02-27T12:51:56.273Z,101454.31
2023-02-27T12:55:15.677Z,101460.22
2023-02-27T12:58:34.737Z,101449.88
2023-02-27T13:02:00.136Z,101439.53
2023-02-27T13:09:10.203Z,101444.63
2023-02-27T13:12:47.060Z,101430.22
2023-02-27T13:15:54.541Z,101410.38
2023-02-27T13:19:21.224Z,101381.81
2023-02-27T13:22:54.538Z,101397.59
2023-02-27T13:26:01.769Z,101395.31
2023-02-27T13:29:12.874Z,101380.00
2023-02-27T13:32:43.129Z,101390.69
2023-02-27T13:36:11.012Z,101387.59
2023-02-27T13:39:39.354Z,101383.25
2023-02-27T13:42:53.285Z,101365.50
2023-02-27T13:46:02.733Z,101374.34
2023-02-27T13:49:06.658Z,101359.94
2023-02-27T13:52:30.285Z,101348.91
2023-02-27T13:55:39.172Z,101326.91
2023-02-27T13:58:48.936Z,101328.28
2023-02-27T14:02:12.612Z,101324.44
2023-02-27T14:05:31.526Z,101321.78
2023-02-27T14:08:48.589Z,101320.84
2023-02-27T14:12:06.766Z,101292.91
2023-02-27T14:15:26.898Z,101297.41
2023-02-27T14:18:51.855Z,101284.03
2023-02-27T14:22:03.619Z,101280.28
2023-02-27T14:25:31.004Z,101281.22
2023-02-27T14:28:56.284Z,101266.72
2023-02-27T14:32:08.330Z,101250.72
2023-02-27T14:35:16.796Z,101244.91
2023-02-27T14:38:28.481Z,101238.28
2023-02-27T14:42:01.908Z,101232.13
2023-02-27T14:45:13.197Z,101219.59
2023-02-27T14:48:27.856Z,101211.88
2023-02-27T14:51:38.328Z,101200.16
2023-02-27T14:54:43.608Z,101193.16
2023-02-27T14:58:20.060Z,101179.88
2023-02-27T15:01:26.068Z,101178.84
2023-02-27T15:04:34.005Z,101169.16
2023-02-27T15:07:40.479Z,101163.19
2023-02-27T15:10:46.163Z,101153.28
2023-02-27T15:14:06.841Z,101154.66
2023-02-27T15:21:06.091Z,101129.72
2023-02-27T15:24:25.216Z,101114.00
2023-02-27T15:27:30.538Z,101103.78
2023-02-27T15:30:36.214Z,101082.03
2023-02-27T15:33:45.566Z,101085.28
2023-02-27T15:36:56.685Z,101068.72
2023-02-27T15:40:02.476Z,101061.91
2023-02-27T15:43:07.151Z,101056.13
2023-02-27T15:46:16.658Z,101049.00
2023-02-27T15:49:24.059Z,101053.34
2023-02-27T15:52:34.178Z,101031.09
2023-02-27T15:56:00.131Z,101028.25
2023-02-27T15:59:05.816Z,101025.94
2023-02-27T16:02:20.963Z,101025.44
2023-02-27T16:05:35.448Z,101019.66
2023-02-27T16:08:47.066Z,101004.91
2023-02-27T16:12:37.450Z,100997.25
2023-02-27T16:15:45.083Z,100995.06
2023-02-27T16:18:54.595Z,100980.19
2023-02-27T16:22:15.294Z,100985.69
2023-02-27T16:25:20.885Z,100976.72
2023-02-27T16:28:37.680Z,100957.84
2023-02-27T16:31:53.520Z,100959.47
2023-02-27T16:35:17.761Z,100948.50
2023-02-27T16:38:23.146Z,100944.66
2023-02-27T16:41:37.111Z,100945.72
2023-02-27T16:44:41.077Z,100927.97
2023-02-27T16:47:48.415Z,100901.94
2023-02-27T16:50:52.571Z,100906.81
2023-02-27T16:54:11.627Z,100915.38
2023-02-27T16:57:18.132Z,100904.84
2023-02-27T17:00:26.981Z,100897.63
2023-02-27T17:03:31.666Z,100891.72
2023-02-27T17:06:35.793Z,100875.75
2023-02-27T17:09:40.130Z,100870.78
2023-02-27T17:12:44.830Z,100861.31
2023-02-27T17:15:48.897Z,100862.81
2023-02-27T17:18:53.010Z,100854.34
2023-02-27T17:22:01.642Z,100833.78
2023-02-27T17:25:13.371Z,100830.13
2023-02-27T17:28:17.783Z,100822.34
2023-02-27T17:31:23.369Z,100822.91
2023-02-27T17:34:27.940Z,100813.22
2023-02-27T17:37:42.189Z,100792.16
2023-02-27T17:40:52.372Z,100790.03
2023-02-27T17:43:57.701Z,100765.09
2023-02-27T17:47:02.858Z,100775.75
2023-02-27T17:50:15.398Z,100756.19
2023-02-27T17:53:26.804Z,100757.75
2023-02-27T17:56:31.248Z,100753.59
2023-02-27T17:59:35.323Z,100765.09
2023-02-27T18:02:39.902Z,100748.84
2023-02-27T18:05:53.247Z,100756.25
2023-02-27T18:09:07.207Z,100731.72
2023-02-27T18:12:15.368Z,100724.22
2023-02-27T18:15:19.398Z,100728.78
2023-02-27T18:18:36.863Z,100707.97
2023-02-27T18:21:52.764Z,100718.28
2023-02-27T18:25:02.041Z,100724.25
2023-02-27T18:28:08.330Z,100719.38
2023-02-27T18:31:25.248Z,100711.38
2023-02-27T18:34:41.099Z,100705.75
2023-02-27T18:37:46.114Z,100698.59
2023-02-27T18:40:55.542Z,100691.16
2023-02-27T18:44:01.628Z,100693.19
2023-02-27T18:47:05.624Z,100691.06
2023-02-27T18:50:20.823Z,100686.78
2023-02-27T18:53:30.036Z,100679.25
2023-02-27T18:56:39.232Z,100685.59
2023-02-27T18:59:48.687Z,100667.63
2023-02-27T19:02:53.059Z,100660.28
2023-02-27T19:05:57.260Z,100635.31
2023-02-27T19:09:01.580Z,100634.41
2023-02-27T19:12:13.491Z,100631.03
2023-02-27T19:15:27.950Z,100620.31
2023-02-27T19:18:44.014Z,100594.59
2023-02-27T19:21:52.922Z,100593.19
2023-02-27T19:24:57.901Z,100598.44
2023-02-27T19:28:03.029Z,100586.66
2023-02-27T19:31:16.010Z,100570.59
2023-02-27T19:34:20.219Z,100562.91
2023-02-27T19:37:28.869Z,100551.00
2023-02-27T19:40:37.571Z,100544.13
2023-02-27T19:43:52.893Z,100531.50
2023-02-27T19:46:57.102Z,100528.03
2023-02-27T19:50:01.041Z,100504.69
2023-02-27T19:53:08.785Z,100512.50
2023-02-27T19:56:15.925Z,100516.91
2023-02-27T19:59:25.372Z,100506.97
2023-02-27T20:02:29.589Z,100522.59
2023-02-27T20:05:45.792Z,100524.75
2023-02-27T20:08:59.410Z,100504.13
2023-02-27T20:12:03.566Z,100506.19
2023-02-27T20:15:11.877Z,100504.88
2023-02-27T20:18:20.909Z,100479.31
2023-02-27T20:21:27.210Z,100488.88
2023-02-27T20:24:35.806Z,100474.84
2023-02-27T20:27:45.321Z,100482.34
2023-02-27T20:30:49.670Z,100478.84
2023-02-27T20:33:53.640Z,100473.09
2023-02-27T20:36:58.154Z,100468.78
2023-02-27T20:40:04.627Z,100459.69
2023-02-27T20:43:08.218Z,100480.22
2023-02-27T20:46:20.089Z,100482.31
2023-02-27T20:49:28.814Z,100467.34
2023-02-27T20:52:33.807Z,100469.16
2023-02-27T20:55:38.189Z,100463.00
2023-02-27T20:58:42.698Z,100458.16
2023-02-27T21:01:51.795Z,100457.31
2023-02-27T21:04:58.775Z,100443.22
2023-02-27T21:08:02.800Z,100446.38
2023-02-27T21:11:28.052Z,100430.16
2023-02-27T21:14:32.602Z,100427.50
2023-02-27T21:17:36.789Z,100420.94
2023-02-27T21:20:46.617Z,100394.81
2023-02-27T21:24:02.385Z,100403.88
2023-02-27T21:27:06.687Z,100391.03
2023-02-27T21:30:11.431Z,100385.34
2023-02-27T21:33:15.686Z,100368.31
2023-02-27T21:36:24.432Z,100377.38
2023-02-27T21:39:30.060Z,100379.31
2023-02-27T21:42:44.370Z,100383.53
2023-02-27T21:45:52.084Z,100382.03
2023-02-27T21:48:58.886Z,100371.97
2023-02-27T21:52:03.577Z,100358.34
2023-02-27T21:55:08.647Z,100347.28
2023-02-27T21:58:12.510Z,100371.91
2023-02-27T22:01:28.735Z,100368.09
2023-02-27T22:04:34.850Z,100352.94
2023-02-27T22:07:43.720Z,100338.03
2023-02-27T22:11:00.065Z,100343.38
2023-02-27T22:14:10.367Z,100350.44
2023-02-27T22:17:15.882Z,100350.44
2023-02-27T22:20:20.230Z,100349.25
2023-02-27T22:23:24.245Z,100348.84
2023-02-27T22:26:39.468Z,100342.28
2023-02-27T22:29:43.485Z,100330.94
2023-02-27T22:32:53.081Z,100333.88
2023-02-27T22:35:57.408Z,100324.47
2023-02-27T22:39:02.105Z,100318.25
2023-02-27T22:42:06.637Z,100316.84
2023-02-27T22:45:10.910Z,100321.03
2023-02-27T22:48:15.594Z,100312.31
2023-02-27T22:51:19.770Z,100320.28
2023-02-27T22:54:29.836Z,100312.84
2023-02-27T22:57:44.048Z,100323.41
2023-02-27T23:00:48.620Z,100323.59
2023-02-27T23:04:06.201Z,100323.03
2023-02-27T23:07:15.332Z,100335.53
2023-02-27T23:10:19.094Z,100314.63
2023-02-27T23:13:23.687Z,100307.66
2023-02-27T23:16:37.827Z,100302.28
2023-02-27T23:19:55.047Z,100291.41
2023-02-27T23:22:59.257Z,100296.72
2023-02-27T23:26:08.580Z,100301.25
2023-02-27T23:29:19.972Z,100294.25
2023-02-27T23:32:25.096Z,100299.56
2023-02-27T23:35:29.774Z,100308.44
2023-02-27T23:38:46.966Z,100290.56
2023-02-27T23:41:52.343Z,100295.06
2023-02-27T23:45:16.893Z,100278.88
2023-02-27T23:48:22.379Z,100275.34
2023-02-27T23:51:37.436Z,100270.78
2023-02-27T23:54:46.064Z,100268.00
2023-02-27T23:57:54.649Z,100258.00
